sensor_id;sensor_type;location;lat;lon;timestamp;pressure;altitude;pressure_sealevel;temperature;humidity
10060;BME280;5069;49.306;8.636;2022-07-23T00:00:19;100282.34;;;26.14;60.25
10060;BME280;5069;49.306;8.636;2022-07-23T00:03:21;100287.13;;;26.20;60.00
10060;BME280;5069;49.306;8.636;2022-07-23T00:06:23;100277.31;;;26.19;60.33
10060;BME280;5069;49.306;8.636;2022-07-23T00:09:25;100273.63;;;26.20;59.72
10060;BME280;5069;49.306;8.636;2022-07-23T00:12:27;100284.41;;;26.20;59.25
10060;BME280;5069;49.306;8.636;2022-07-23T00:15:29;100280.53;;;26.05;61.17
10060;BME280;5069;49.306;8.636;2022-07-23T00:18:30;100277.13;;;25.85;61.36
10060;BME280;5069;49.306;8.636;2022-07-23T00:21:32;100283.59;;;25.92;60.98
10060;BME280;5069;49.306;8.636;2022-07-23T00:24:33;100280.59;;;25.95;61.20
10060;BME280;5069;49.306;8.636;2022-07-23T00:27:35;100285.88;;;25.97;60.69
10060;BME280;5069;49.306;8.636;2022-07-23T00:30:37;100298.53;;;25.96;61.79
10060;BME280;5069;49.306;8.636;2022-07-23T00:33:38;100306.28;;;25.81;62.43
10060;BME280;5069;49.306;8.636;2022-07-23T00:36:40;100311.06;;;25.87;62.12
10060;BME280;5069;49.306;8.636;2022-07-23T00:39:42;100313.06;;;25.58;64.52
10060;BME280;5069;49.306;8.636;2022-07-23T00:42:44;100311.53;;;25.46;64.01
10060;BME280;5069;49.306;8.636;2022-07-23T00:45:46;100308.53;;;25.12;66.11
10060;BME280;5069;49.306;8.636;2022-07-23T00:48:48;100311.44;;;24.91;67.36
10060;BME280;5069;49.306;8.636;2022-07-23T00:51:51;100299.22;;;24.78;67.65
10060;BME280;5069;49.306;8.636;2022-07-23T00:54:52;100305.50;;;24.59;68.43
10060;BME280;5069;49.306;8.636;2022-07-23T00:57:55;100297.41;;;24.40;69.30
10060;BME280;5069;49.306;8.636;2022-07-23T01:00:56;100297.25;;;24.22;70.12
10060;BME280;5069;49.306;8.636;2022-07-23T01:03:58;100289.72;;;24.06;70.68
10060;BME280;5069;49.306;8.636;2022-07-23T01:07:01;100287.03;;;24.06;70.35
10060;BME280;5069;49.306;8.636;2022-07-23T01:10:04;100293.56;;;24.33;68.82
10060;BME280;5069;49.306;8.636;2022-07-23T01:13:08;100299.84;;;24.43;68.12
10060;BME280;5069;49.306;8.636;2022-07-23T01:16:11;100308.06;;;24.32;68.88
10060;BME280;5069;49.306;8.636;2022-07-23T01:19:13;100311.47;;;24.43;68.11
10060;BME280;5069;49.306;8.636;2022-07-23T01:22:19;100318.41;;;24.36;68.28
10060;BME280;5069;49.306;8.636;2022-07-23T01:25:22;100315.44;;;24.29;68.62
10060;BME280;5069;49.306;8.636;2022-07-23T01:28:30;100321.09;;;24.36;68.30
10060;BME280;5069;49.306;8.636;2022-07-23T01:31:33;100313.03;;;24.36;67.73
10060;BME280;5069;49.306;8.636;2022-07-23T01:34:34;100288.47;;;24.39;67.55
10060;BME280;5069;49.306;8.636;2022-07-23T01:37:36;100287.91;;;24.36;67.45
10060;BME280;5069;49.306;8.636;2022-07-23T01:40:39;100284.66;;;24.22;67.73
10060;BME280;5069;49.306;8.636;2022-07-23T01:43:43;100277.72;;;24.29;66.55
10060;BME280;5069;49.306;8.636;2022-07-23T01:46:45;100294.16;;;24.36;67.41
10060;BME280;5069;49.306;8.636;2022-07-23T01:49:46;100298.13;;;24.42;66.83
10060;BME280;5069;49.306;8.636;2022-07-23T01:53:01;100298.56;;;24.37;66.66
10060;BME280;5069;49.306;8.636;2022-07-23T01:56:03;100307.75;;;24.35;66.98
10060;BME280;5069;49.306;8.636;2022-07-23T01:59:04;100303.03;;;24.17;67.40
10060;BME280;5069;49.306;8.636;2022-07-23T02:02:06;100288.72;;;24.07;67.08
10060;BME280;5069;49.306;8.636;2022-07-23T02:05:08;100289.28;;;24.11;66.70
10060;BME280;5069;49.306;8.636;2022-07-23T02:08:11;100281.34;;;23.90;66.37
10060;BME280;5069;49.306;8.636;2022-07-23T02:11:12;100284.28;;;23.77;66.60
10060;BME280;5069;49.306;8.636;2022-07-23T02:14:13;100280.44;;;23.70;67.29
10060;BME280;5069;49.306;8.636;2022-07-23T02:17:15;100289.03;;;23.55;67.88
10060;BME280;5069;49.306;8.636;2022-07-23T02:20:16;100312.88;;;23.69;66.77
10060;BME280;5069;49.306;8.636;2022-07-23T02:23:18;100313.56;;;23.71;66.33
10060;BME280;5069;49.306;8.636;2022-07-23T02:26:19;100313.31;;;23.74;67.00
10060;BME280;5069;49.306;8.636;2022-07-23T02:29:24;100330.34;;;23.84;65.91
10060;BME280;5069;49.306;8.636;2022-07-23T02:32:28;100338.59;;;23.92;65.12
10060;BME280;5069;49.306;8.636;2022-07-23T02:35:29;100354.75;;;23.92;66.58
10060;BME280;5069;49.306;8.636;2022-07-23T02:38:34;100345.78;;;23.82;66.57
10060;BME280;5069;49.306;8.636;2022-07-23T02:41:36;100344.16;;;23.70;66.76
10060;BME280;5069;49.306;8.636;2022-07-23T02:44:37;100345.81;;;23.52;67.40
10060;BME280;5069;49.306;8.636;2022-07-23T02:47:39;100346.06;;;23.48;68.20
10060;BME280;5069;49.306;8.636;2022-07-23T02:50:40;100341.03;;;23.34;68.05
10060;BME280;5069;49.306;8.636;2022-07-23T02:53:42;100347.22;;;23.46;67.95
10060;BME280;5069;49.306;8.636;2022-07-23T02:56:44;100358.28;;;23.32;68.47
10060;BME280;5069;49.306;8.636;2022-07-23T02:59:45;100358.84;;;23.35;68.16
10060;BME280;5069;49.306;8.636;2022-07-23T03:02:47;100377.31;;;23.19;69.39
10060;BME280;5069;49.306;8.636;2022-07-23T03:05:49;100364.28;;;22.94;70.94
10060;BME280;5069;49.306;8.636;2022-07-23T03:08:50;100367.22;;;22.91;72.00
10060;BME280;5069;49.306;8.636;2022-07-23T03:11:52;100366.31;;;22.81;71.72
10060;BME280;5069;49.306;8.636;2022-07-23T03:14:54;100366.59;;;22.78;71.37
10060;BME280;5069;49.306;8.636;2022-07-23T03:17:55;100372.41;;;22.83;70.86
10060;BME280;5069;49.306;8.636;2022-07-23T03:20:57;100366.00;;;22.95;70.16
10060;BME280;5069;49.306;8.636;2022-07-23T03:23:58;100372.06;;;22.97;70.10
10060;BME280;5069;49.306;8.636;2022-07-23T03:27:00;100379.44;;;22.95;70.06
10060;BME280;5069;49.306;8.636;2022-07-23T03:30:01;100377.78;;;23.03;69.69
10060;BME280;5069;49.306;8.636;2022-07-23T03:33:03;100377.38;;;23.08;69.67
10060;BME280;5069;49.306;8.636;2022-07-23T03:36:05;100392.19;;;23.02;69.77
10060;BME280;5069;49.306;8.636;2022-07-23T03:39:13;100385.00;;;22.82;70.57
10060;BME280;5069;49.306;8.636;2022-07-23T03:42:15;100381.69;;;22.79;70.66
10060;BME280;5069;49.306;8.636;2022-07-23T03:45:19;100366.31;;;22.81;71.33
10060;BME280;5069;49.306;8.636;2022-07-23T03:48:21;100367.56;;;22.77;71.21
10060;BME280;5069;49.306;8.636;2022-07-23T03:51:22;100362.56;;;22.72;71.64
10060;BME280;5069;49.306;8.636;2022-07-23T03:54:24;100351.84;;;22.61;71.66
10060;BME280;5069;49.306;8.636;2022-07-23T03:57:25;100344.88;;;22.58;71.94
10060;BME280;5069;49.306;8.636;2022-07-23T04:00:27;100361.00;;;22.58;71.88
10060;BME280;5069;49.306;8.636;2022-07-23T04:03:28;100369.47;;;22.54;72.06
10060;BME280;5069;49.306;8.636;2022-07-23T04:06:30;100384.72;;;22.53;72.03
10060;BME280;5069;49.306;8.636;2022-07-23T04:09:33;100415.94;;;22.65;71.42
10060;BME280;5069;49.306;8.636;2022-07-23T04:12:35;100455.00;;;22.70;71.42
10060;BME280;5069;49.306;8.636;2022-07-23T04:15:37;100448.66;;;22.82;70.46
10060;BME280;5069;49.306;8.636;2022-07-23T04:18:40;100460.66;;;22.98;70.88
10060;BME280;5069;49.306;8.636;2022-07-23T04:21:48;100448.88;;;22.79;73.55
10060;BME280;5069;49.306;8.636;2022-07-23T04:24:50;100453.94;;;22.61;77.26
10060;BME280;5069;49.306;8.636;2022-07-23T04:27:52;100426.50;;;22.46;82.42
10060;BME280;5069;49.306;8.636;2022-07-23T04:30:56;100428.44;;;22.44;85.28
10060;BME280;5069;49.306;8.636;2022-07-23T04:33:58;100428.97;;;22.38;86.13
10060;BME280;5069;49.306;8.636;2022-07-23T04:37:00;100438.09;;;22.47;88.29
10060;BME280;5069;49.306;8.636;2022-07-23T04:40:04;100434.16;;;22.51;90.92
10060;BME280;5069;49.306;8.636;2022-07-23T04:43:06;100424.78;;;22.45;92.03
10060;BME280;5069;49.306;8.636;2022-07-23T04:46:14;100445.81;;;22.29;93.20
10060;BME280;5069;49.306;8.636;2022-07-23T04:49:21;100468.56;;;22.14;90.79
10060;BME280;5069;49.306;8.636;2022-07-23T04:52:23;100475.75;;;22.02;92.04
10060;BME280;5069;49.306;8.636;2022-07-23T04:55:25;100490.72;;;21.82;95.26
10060;BME280;5069;49.306;8.636;2022-07-23T04:58:27;100493.00;;;21.65;98.53
10060;BME280;5069;49.306;8.636;2022-07-23T05:01:28;100512.41;;;21.57;98.67
10060;BME280;5069;49.306;8.636;2022-07-23T05:04:30;100521.38;;;21.45;100.00
10060;BME280;5069;49.306;8.636;2022-07-23T05:07:32;100523.31;;;21.43;100.00
10060;BME280;5069;49.306;8.636;2022-07-23T05:10:34;100508.75;;;21.58;100.00
10060;BME280;5069;49.306;8.636;2022-07-23T05:13:35;100499.69;;;21.59;100.00
10060;BME280;5069;49.306;8.636;2022-07-23T05:16:39;100513.66;;;21.64;100.00
10060;BME280;5069;49.306;8.636;2022-07-23T05:19:47;100506.44;;;21.76;100.00
10060;BME280;5069;49.306;8.636;2022-07-23T05:22:48;100524.25;;;21.77;100.00
10060;BME280;5069;49.306;8.636;2022-07-23T05:25:51;100510.25;;;21.84;100.00
10060;BME280;5069;49.306;8.636;2022-07-23T05:28:53;100510.97;;;21.75;99.78
10060;BME280;5069;49.306;8.636;2022-07-23T05:31:55;100506.09;;;21.80;100.00
10060;BME280;5069;49.306;8.636;2022-07-23T05:34:57;100506.34;;;21.89;98.01
10060;BME280;5069;49.306;8.636;2022-07-23T05:37:58;100493.66;;;21.91;99.90
10060;BME280;5069;49.306;8.636;2022-07-23T05:41:00;100490.22;;;21.89;99.10
10060;BME280;5069;49.306;8.636;2022-07-23T05:44:03;100489.56;;;21.98;98.91
10060;BME280;5069;49.306;8.636;2022-07-23T05:47:06;100475.28;;;21.97;100.00
10060;BME280;5069;49.306;8.636;2022-07-23T05:50:08;100452.94;;;22.08;99.27
10060;BME280;5069;49.306;8.636;2022-07-23T05:53:16;100458.53;;;22.16;99.55
10060;BME280;5069;49.306;8.636;2022-07-23T05:56:43;100472.22;;;22.02;96.69
10060;BME280;5069;49.306;8.636;2022-07-23T05:59:46;100485.91;;;22.10;96.70
10060;BME280;5069;49.306;8.636;2022-07-23T06:02:47;100484.03;;;22.21;94.66
10060;BME280;5069;49.306;8.636;2022-07-23T06:05:56;100490.25;;;22.33;97.00
10060;BME280;5069;49.306;8.636;2022-07-23T06:08:58;100478.16;;;22.39;95.80
10060;BME280;5069;49.306;8.636;2022-07-23T06:12:01;100484.75;;;22.46;93.76
10060;BME280;5069;49.306;8.636;2022-07-23T06:15:03;100497.59;;;22.31;96.48
10060;BME280;5069;49.306;8.636;2022-07-23T06:18:06;100500.78;;;22.14;95.69
10060;BME280;5069;49.306;8.636;2022-07-23T06:21:07;100525.91;;;22.13;96.72
10060;BME280;5069;49.306;8.636;2022-07-23T06:24:31;100530.53;;;22.00;98.91
10060;BME280;5069;49.306;8.636;2022-07-23T06:27:33;100537.69;;;21.88;100.00
10060;BME280;5069;49.306;8.636;2022-07-23T06:30:34;100539.69;;;21.97;99.08
10060;BME280;5069;49.306;8.636;2022-07-23T06:33:37;100564.78;;;21.85;100.00
10060;BME280;5069;49.306;8.636;2022-07-23T06:36:39;100566.13;;;21.91;100.00
10060;BME280;5069;49.306;8.636;2022-07-23T06:39:43;100553.81;;;21.53;100.00
10060;BME280;5069;49.306;8.636;2022-07-23T06:42:46;100545.75;;;21.42;100.00
10060;BME280;5069;49.306;8.636;2022-07-23T06:45:55;100548.00;;;21.59;100.00
10060;BME280;5069;49.306;8.636;2022-07-23T06:48:57;100541.47;;;21.74;100.00
10060;BME280;5069;49.306;8.636;2022-07-23T06:51:58;100550.63;;;21.83;100.00
10060;BME280;5069;49.306;8.636;2022-07-23T06:55:00;100535.84;;;21.77;100.00
10060;BME280;5069;49.306;8.636;2022-07-23T06:58:01;100540.97;;;21.69;100.00
10060;BME280;5069;49.306;8.636;2022-07-23T07:01:03;100566.41;;;21.53;100.00
10060;BME280;5069;49.306;8.636;2022-07-23T07:04:04;100564.19;;;21.47;100.00
10060;BME280;5069;49.306;8.636;2022-07-23T07:07:06;100558.72;;;21.59;100.00
10060;BME280;5069;49.306;8.636;2022-07-23T07:10:08;100563.44;;;21.79;100.00
10060;BME280;5069;49.306;8.636;2022-07-23T07:13:16;100572.09;;;21.94;100.00
10060;BME280;5069;49.306;8.636;2022-07-23T07:16:17;100572.63;;;22.10;96.86
10060;BME280;5069;49.306;8.636;2022-07-23T07:19:19;100568.00;;;22.01;98.18
10060;BME280;5069;49.306;8.636;2022-07-23T07:22:20;100572.47;;;21.90;96.56
10060;BME280;5069;49.306;8.636;2022-07-23T07:25:22;100575.75;;;21.93;99.87
10060;BME280;5069;49.306;8.636;2022-07-23T07:28:23;100587.66;;;22.13;97.72
10060;BME280;5069;49.306;8.636;2022-07-23T07:31:25;100576.44;;;22.19;96.31
10060;BME280;5069;49.306;8.636;2022-07-23T07:34:26;100586.91;;;22.11;97.90
10060;BME280;5069;49.306;8.636;2022-07-23T07:37:28;100582.78;;;22.07;99.79
10060;BME280;5069;49.306;8.636;2022-07-23T07:40:30;100585.84;;;22.13;99.23
10060;BME280;5069;49.306;8.636;2022-07-23T07:43:34;100588.16;;;22.29;97.20
10060;BME280;5069;49.306;8.636;2022-07-23T07:46:36;100601.59;;;22.29;95.58
10060;BME280;5069;49.306;8.636;2022-07-23T07:49:38;100600.50;;;22.32;96.87
10060;BME280;5069;49.306;8.636;2022-07-23T07:52:40;100601.09;;;22.35;96.08
10060;BME280;5069;49.306;8.636;2022-07-23T07:55:41;100615.28;;;22.59;94.54
10060;BME280;5069;49.306;8.636;2022-07-23T07:58:51;100606.59;;;22.56;92.08
10060;BME280;5069;49.306;8.636;2022-07-23T08:01:52;100603.09;;;22.78;91.27
10060;BME280;5069;49.306;8.636;2022-07-23T08:04:54;100606.94;;;22.96;89.56
10060;BME280;5069;49.306;8.636;2022-07-23T08:07:59;100607.44;;;22.90;90.62
10060;BME280;5069;49.306;8.636;2022-07-23T08:11:00;100604.75;;;22.90;90.74
10060;BME280;5069;49.306;8.636;2022-07-23T08:14:02;100604.50;;;23.04;88.27
10060;BME280;5069;49.306;8.636;2022-07-23T08:17:04;100606.56;;;23.12;88.17
10060;BME280;5069;49.306;8.636;2022-07-23T08:20:17;100620.31;;;23.29;85.89
10060;BME280;5069;49.306;8.636;2022-07-23T08:23:19;100621.81;;;23.22;88.75
10060;BME280;5069;49.306;8.636;2022-07-23T08:26:21;100614.66;;;23.00;87.17
10060;BME280;5069;49.306;8.636;2022-07-23T08:29:22;100625.75;;;22.96;88.09
10060;BME280;5069;49.306;8.636;2022-07-23T08:32:27;100630.16;;;22.97;88.35
10060;BME280;5069;49.306;8.636;2022-07-23T08:35:47;100638.50;;;22.94;88.58
10060;BME280;5069;49.306;8.636;2022-07-23T08:38:49;100625.75;;;23.07;87.56
10060;BME280;5069;49.306;8.636;2022-07-23T08:41:50;100624.06;;;23.06;86.08
10060;BME280;5069;49.306;8.636;2022-07-23T08:44:52;100629.16;;;23.09;88.08
10060;BME280;5069;49.306;8.636;2022-07-23T08:47:56;100628.44;;;23.07;88.61
10060;BME280;5069;49.306;8.636;2022-07-23T08:51:02;100618.69;;;23.06;88.76
10060;BME280;5069;49.306;8.636;2022-07-23T08:54:05;100634.81;;;23.06;89.54
10060;BME280;5069;49.306;8.636;2022-07-23T08:57:06;100629.06;;;23.11;90.44
10060;BME280;5069;49.306;8.636;2022-07-23T09:00:08;100619.31;;;23.30;85.63
10060;BME280;5069;49.306;8.636;2022-07-23T09:03:27;100624.94;;;23.38;83.67
10060;BME280;5069;49.306;8.636;2022-07-23T09:06:29;100619.31;;;23.30;81.47
10060;BME280;5069;49.306;8.636;2022-07-23T09:09:30;100625.44;;;23.32;81.42
10060;BME280;5069;49.306;8.636;2022-07-23T09:12:32;100626.13;;;23.45;81.40
10060;BME280;5069;49.306;8.636;2022-07-23T09:15:48;100621.44;;;23.59;80.90
10060;BME280;5069;49.306;8.636;2022-07-23T09:18:56;100626.25;;;23.55;80.86
10060;BME280;5069;49.306;8.636;2022-07-23T09:22:19;100628.66;;;23.69;79.98
10060;BME280;5069;49.306;8.636;2022-07-23T09:25:28;100631.44;;;23.68;80.24
10060;BME280;5069;49.306;8.636;2022-07-23T09:28:29;100624.25;;;23.89;79.08
10060;BME280;5069;49.306;8.636;2022-07-23T09:34:36;100628.00;;;23.98;78.81
10060;BME280;5069;49.306;8.636;2022-07-23T09:37:40;100624.63;;;24.05;77.93
10060;BME280;5069;49.306;8.636;2022-07-23T09:40:43;100623.88;;;24.45;76.64
10060;BME280;5069;49.306;8.636;2022-07-23T09:43:44;100624.44;;;24.79;72.80
10060;BME280;5069;49.306;8.636;2022-07-23T09:46:48;100623.16;;;25.03;73.55
10060;BME280;5069;49.306;8.636;2022-07-23T09:50:09;100618.34;;;25.36;71.69
10060;BME280;5069;49.306;8.636;2022-07-23T09:53:24;100609.84;;;25.31;71.45
10060;BME280;5069;49.306;8.636;2022-07-23T09:56:27;100605.59;;;25.38;69.97
10060;BME280;5069;49.306;8.636;2022-07-23T09:59:31;100609.41;;;25.35;66.14
10060;BME280;5069;49.306;8.636;2022-07-23T10:02:35;100603.06;;;25.65;66.40
10060;BME280;5069;49.306;8.636;2022-07-23T10:05:55;100611.72;;;25.78;63.65
10060;BME280;5069;49.306;8.636;2022-07-23T10:09:28;100610.69;;;26.08;60.57
10060;BME280;5069;49.306;8.636;2022-07-23T10:12:51;100609.53;;;26.30;59.27
10060;BME280;5069;49.306;8.636;2022-07-23T10:15:53;100598.63;;;26.49;58.67
10060;BME280;5069;49.306;8.636;2022-07-23T10:18:55;100605.47;;;26.53;58.54
10060;BME280;5069;49.306;8.636;2022-07-23T10:22:00;100600.78;;;26.73;58.64
10060;BME280;5069;49.306;8.636;2022-07-23T10:25:18;100598.81;;;27.02;57.79
10060;BME280;5069;49.306;8.636;2022-07-23T10:32:17;100601.44;;;27.12;55.39
10060;BME280;5069;49.306;8.636;2022-07-23T10:35:33;100603.88;;;27.15;55.59
10060;BME280;5069;49.306;8.636;2022-07-23T10:42:07;100597.22;;;27.09;57.98
10060;BME280;5069;49.306;8.636;2022-07-23T10:45:36;100596.75;;;27.14;56.25
10060;BME280;5069;49.306;8.636;2022-07-23T10:48:38;100591.13;;;27.43;55.49
10060;BME280;5069;49.306;8.636;2022-07-23T10:55:44;100587.63;;;27.33;54.10
10060;BME280;5069;49.306;8.636;2022-07-23T10:58:48;100588.72;;;27.58;53.46
10060;BME280;5069;49.306;8.636;2022-07-23T11:01:50;100584.25;;;27.92;53.44
10060;BME280;5069;49.306;8.636;2022-07-23T11:04:53;100593.34;;;27.83;53.79
10060;BME280;5069;49.306;8.636;2022-07-23T11:14:07;100597.41;;;27.61;55.05
10060;BME280;5069;49.306;8.636;2022-07-23T11:17:20;100587.91;;;27.12;55.74
10060;BME280;5069;49.306;8.636;2022-07-23T11:20:23;100595.81;;;27.23;55.83
10060;BME280;5069;49.306;8.636;2022-07-23T11:27:00;100590.59;;;28.18;53.96
10060;BME280;5069;49.306;8.636;2022-07-23T11:30:03;100591.09;;;27.96;53.33
10060;BME280;5069;49.306;8.636;2022-07-23T11:36:09;100579.47;;;27.86;53.75
10060;BME280;5069;49.306;8.636;2022-07-23T11:39:10;100580.06;;;28.15;51.89
10060;BME280;5069;49.306;8.636;2022-07-23T11:42:17;100586.13;;;28.35;51.03
10060;BME280;5069;49.306;8.636;2022-07-23T11:45:20;100582.13;;;28.55;48.65
10060;BME280;5069;49.306;8.636;2022-07-23T11:48:31;100579.50;;;28.12;49.30
10060;BME280;5069;49.306;8.636;2022-07-23T11:51:41;100586.59;;;28.30;50.99
10060;BME280;5069;49.306;8.636;2022-07-23T11:55:00;100579.25;;;28.57;50.70
10060;BME280;5069;49.306;8.636;2022-07-23T11:58:02;100570.22;;;28.74;49.24
10060;BME280;5069;49.306;8.636;2022-07-23T12:01:04;100565.19;;;28.87;48.28
10060;BME280;5069;49.306;8.636;2022-07-23T12:04:06;100565.75;;;29.15;46.07
10060;BME280;5069;49.306;8.636;2022-07-23T12:10:35;100553.06;;;29.64;42.33
10060;BME280;5069;49.306;8.636;2022-07-23T12:13:37;100553.25;;;29.71;42.37
10060;BME280;5069;49.306;8.636;2022-07-23T12:16:39;100547.28;;;29.75;43.08
10060;BME280;5069;49.306;8.636;2022-07-23T12:19:41;100553.22;;;29.87;43.37
10060;BME280;5069;49.306;8.636;2022-07-23T12:22:48;100544.56;;;29.75;41.32
10060;BME280;5069;49.306;8.636;2022-07-23T12:25:51;100539.31;;;29.66;42.13
10060;BME280;5069;49.306;8.636;2022-07-23T12:28:53;100539.16;;;29.67;42.55
10060;BME280;5069;49.306;8.636;2022-07-23T12:31:54;100531.16;;;29.90;42.14
10060;BME280;5069;49.306;8.636;2022-07-23T12:35:07;100538.94;;;29.85;42.36
10060;BME280;5069;49.306;8.636;2022-07-23T12:38:14;100536.06;;;29.86;41.72
10060;BME280;5069;49.306;8.636;2022-07-23T12:41:16;100528.38;;;30.14;41.98
10060;BME280;5069;49.306;8.636;2022-07-23T12:44:18;100537.06;;;30.10;41.15
10060;BME280;5069;49.306;8.636;2022-07-23T12:47:19;100532.69;;;30.01;41.42
10060;BME280;5069;49.306;8.636;2022-07-23T12:50:41;100519.75;;;29.86;41.50
10060;BME280;5069;49.306;8.636;2022-07-23T12:53:46;100526.19;;;30.18;43.00
10060;BME280;5069;49.306;8.636;2022-07-23T12:56:49;100536.63;;;30.45;41.37
10060;BME280;5069;49.306;8.636;2022-07-23T12:59:50;100535.94;;;30.51;41.40
10060;BME280;5069;49.306;8.636;2022-07-23T13:02:52;100531.03;;;30.38;41.47
10060;BME280;5069;49.306;8.636;2022-07-23T13:05:54;100540.75;;;30.25;41.98
10060;BME280;5069;49.306;8.636;2022-07-23T13:08:56;100540.09;;;30.15;42.38
10060;BME280;5069;49.306;8.636;2022-07-23T13:11:57;100548.00;;;30.49;42.15
10060;BME280;5069;49.306;8.636;2022-07-23T13:14:59;100545.50;;;30.31;42.75
10060;BME280;5069;49.306;8.636;2022-07-23T13:18:00;100539.78;;;30.18;42.72
10060;BME280;5069;49.306;8.636;2022-07-23T13:21:03;100548.63;;;29.87;43.66
10060;BME280;5069;49.306;8.636;2022-07-23T13:24:07;100551.53;;;29.70;43.91
10060;BME280;5069;49.306;8.636;2022-07-23T13:27:09;100549.00;;;29.44;44.14
10060;BME280;5069;49.306;8.636;2022-07-23T13:30:13;100545.72;;;29.08;45.28
10060;BME280;5069;49.306;8.636;2022-07-23T13:33:21;100545.88;;;29.06;45.99
10060;BME280;5069;49.306;8.636;2022-07-23T13:36:22;100547.19;;;28.94;47.04
10060;BME280;5069;49.306;8.636;2022-07-23T13:39:24;100549.81;;;29.20;47.31
10060;BME280;5069;49.306;8.636;2022-07-23T13:42:25;100546.97;;;29.38;46.70
10060;BME280;5069;49.306;8.636;2022-07-23T13:45:29;100558.16;;;29.75;45.67
10060;BME280;5069;49.306;8.636;2022-07-23T13:48:31;100552.22;;;29.72;45.16
10060;BME280;5069;49.306;8.636;2022-07-23T13:51:32;100554.09;;;29.39;46.01
10060;BME280;5069;49.306;8.636;2022-07-23T13:54:34;100549.00;;;29.60;46.15
10060;BME280;5069;49.306;8.636;2022-07-23T13:57:35;100548.16;;;29.51;46.33
10060;BME280;5069;49.306;8.636;2022-07-23T14:00:40;100553.94;;;29.32;46.85
10060;BME280;5069;49.306;8.636;2022-07-23T14:03:53;100547.06;;;29.12;46.86
10060;BME280;5069;49.306;8.636;2022-07-23T14:06:55;100542.94;;;28.84;47.62
10060;BME280;5069;49.306;8.636;2022-07-23T14:09:57;100543.72;;;28.68;47.78
10060;BME280;5069;49.306;8.636;2022-07-23T14:12:59;100546.31;;;28.44;48.54
10060;BME280;5069;49.306;8.636;2022-07-23T14:16:01;100554.06;;;28.30;48.71
10060;BME280;5069;49.306;8.636;2022-07-23T14:19:02;100545.25;;;28.36;49.44
10060;BME280;5069;49.306;8.636;2022-07-23T14:22:05;100547.72;;;28.48;48.51
10060;BME280;5069;49.306;8.636;2022-07-23T14:25:08;100542.09;;;28.41;48.78
10060;BME280;5069;49.306;8.636;2022-07-23T14:28:11;100549.66;;;28.38;48.56
10060;BME280;5069;49.306;8.636;2022-07-23T14:31:13;100551.44;;;28.47;48.07
10060;BME280;5069;49.306;8.636;2022-07-23T14:34:22;100551.78;;;28.52;47.65
10060;BME280;5069;49.306;8.636;2022-07-23T14:37:28;100545.00;;;28.56;47.16
10060;BME280;5069;49.306;8.636;2022-07-23T14:40:32;100552.19;;;28.65;46.92
10060;BME280;5069;49.306;8.636;2022-07-23T14:43:34;100553.47;;;28.87;46.60
10060;BME280;5069;49.306;8.636;2022-07-23T14:46:39;100550.94;;;29.01;46.18
10060;BME280;5069;49.306;8.636;2022-07-23T14:49:41;100551.16;;;29.16;45.24
10060;BME280;5069;49.306;8.636;2022-07-23T14:52:42;100554.78;;;29.49;44.71
10060;BME280;5069;49.306;8.636;2022-07-23T14:55:44;100547.44;;;29.25;45.45
10060;BME280;5069;49.306;8.636;2022-07-23T14:58:46;100549.34;;;29.33;45.34
10060;BME280;5069;49.306;8.636;2022-07-23T15:01:48;100541.16;;;29.25;45.18
10060;BME280;5069;49.306;8.636;2022-07-23T15:04:49;100542.16;;;29.15;45.27
10060;BME280;5069;49.306;8.636;2022-07-23T15:07:51;100543.56;;;29.36;45.35
10060;BME280;5069;49.306;8.636;2022-07-23T15:10:52;100543.56;;;29.60;44.66
10060;BME280;5069;49.306;8.636;2022-07-23T15:13:54;100539.78;;;29.85;43.91
10060;BME280;5069;49.306;8.636;2022-07-23T15:16:56;100543.88;;;29.89;43.83
10060;BME280;5069;49.306;8.636;2022-07-23T15:19:57;100535.38;;;30.09;43.53
10060;BME280;5069;49.306;8.636;2022-07-23T15:22:59;100526.13;;;30.26;43.33
10060;BME280;5069;49.306;8.636;2022-07-23T15:26:00;100524.97;;;30.20;43.52
10060;BME280;5069;49.306;8.636;2022-07-23T15:29:02;100529.88;;;30.25;43.19
10060;BME280;5069;49.306;8.636;2022-07-23T15:32:05;100528.28;;;30.47;41.88
10060;BME280;5069;49.306;8.636;2022-07-23T15:35:07;100526.16;;;30.65;41.84
10060;BME280;5069;49.306;8.636;2022-07-23T15:38:09;100521.81;;;30.87;41.14
10060;BME280;5069;49.306;8.636;2022-07-23T15:41:14;100521.25;;;30.68;40.61
10060;BME280;5069;49.306;8.636;2022-07-23T15:44:15;100518.00;;;30.65;41.18
10060;BME280;5069;49.306;8.636;2022-07-23T15:47:29;100515.22;;;30.81;41.15
10060;BME280;5069;49.306;8.636;2022-07-23T15:50:31;100513.00;;;30.76;41.08
10060;BME280;5069;49.306;8.636;2022-07-23T15:53:33;100511.34;;;30.75;40.39
10060;BME280;5069;49.306;8.636;2022-07-23T15:56:37;100508.34;;;30.62;40.82
10060;BME280;5069;49.306;8.636;2022-07-23T15:59:39;100505.25;;;30.65;41.14
10060;BME280;5069;49.306;8.636;2022-07-23T16:02:41;100507.19;;;30.57;40.83
10060;BME280;5069;49.306;8.636;2022-07-23T16:05:43;100499.19;;;30.55;41.26
10060;BME280;5069;49.306;8.636;2022-07-23T16:08:47;100508.13;;;30.25;41.73
10060;BME280;5069;49.306;8.636;2022-07-23T16:11:48;100498.19;;;30.48;41.52
10060;BME280;5069;49.306;8.636;2022-07-23T16:14:50;100499.31;;;30.70;41.00
10060;BME280;5069;49.306;8.636;2022-07-23T16:17:53;100501.81;;;30.71;40.72
10060;BME280;5069;49.306;8.636;2022-07-23T16:20:55;100497.69;;;30.45;41.28
10060;BME280;5069;49.306;8.636;2022-07-23T16:23:56;100502.97;;;30.38;42.07
10060;BME280;5069;49.306;8.636;2022-07-23T16:26:58;100501.88;;;30.16;41.99
10060;BME280;5069;49.306;8.636;2022-07-23T16:30:08;100507.38;;;30.47;40.86
10060;BME280;5069;49.306;8.636;2022-07-23T16:33:10;100498.34;;;30.55;40.89
10060;BME280;5069;49.306;8.636;2022-07-23T16:36:11;100500.56;;;30.82;40.38
10060;BME280;5069;49.306;8.636;2022-07-23T16:39:13;100504.06;;;30.68;40.88
10060;BME280;5069;49.306;8.636;2022-07-23T16:42:15;100504.91;;;30.68;40.76